Detroit Metropolitan Wayne County Airport
KDTW : now visible

Airfield :











YOU CAN JOIN US ON...

 
LOGIN :

Register | Disclaimer

   EN    FR    IT 

 









Legend :    VFR   Marginal VFR   IFR   Intensive IFR   Very Intensive IFR
Visi :
Ceiling :
>= 8 km
>= 3000ft
5 to 8 km
1000 to 3000 ft
1500m to 5 km
500 to 1000 ft
800 to 1500m
200 to 500 ft
< 800m
< 200 ft
Symbols :   Thunderstorms  Fog  Heavy snow  Heavy precipitations  Wind > 20 kt







- Airport Elevation : 645 ft
- IATA code : DTW


KDTW - Detroit Metropolitan Wayne County

CURRENT METAR :
  • 260153Z 08006KT 10SM BKN250 20/13 A3012 RMK AO2 SLP197 T02000128 $

EXPIRED METARs :
  • 260053Z 09008KT 10SM FEW210 BKN250 20/13 A3012 RMK AO2 SLP195 VIRGA W T02000128 $
  • 252353Z 09011G16KT 10SM SCT210 OVC250 21/12 A3012 RMK AO2 SLP196 VIRGA ALQDS T02110122 10250 20211 56012 $

TAF KDTW
Valid from the 26 at 00:00 until the 27 at 06:00 UTC


252320Z 2600/2706 10007KT P6SM SCT250
FM261400 14011G18KT P6SM BKN050 BKN200
FM261800 13012G19KT P6SM OVC050
PROB30 2619/2622 -SHRA OVC035
FM262200 14011KT 6SM -RA BR BKN025 OVC050
No reported NOTAMs for that airfield.



MET'MAP, your aeronautical weather chart ! - Copyright ORBIFLY December 2007 - Disclaimer

ORBIFLY MET'MAP TEAM :

Programming & Development : Alexandra Zaïnal
Concept & Development : Baudouin d'Aumeries
Co-Development & Prog : Marc-Olivier Méhu
Technical & hardware support : Manuel Goepfert

Contact : metmap@orbifly.com




SOURCES & CREDITS :

   NOAA       Earth
Advisory